Time;durP1;ratioP1;P1;durP2;ratioP2;P2;SDS_P1;SDS_P2;PMS_P1;PMS_P2;Temp;Humidity;BMP_temperature;BMP_pressure;BME280_temperature;BME280_humidity;BME280_pressure;Samples;Min_cycle;Max_cycle;Signal;HPM_P1;HPM_P2
2023/10/10 00:01:06;;;;;;;9.40;9.00;;;;;;;;;;5074373;28;20024;-64
2023/10/10 00:03:32;;;;;;;9.63;9.23;;;;;;;;;;5072673;28;20036;-64
2023/10/10 00:05:58;;;;;;;9.35;8.95;;;;;;;;;;5070278;28;20448;-63
2023/10/10 00:08:33;;;;;;;10.00;9.50;;;;;;;;;;5062459;28;20028;-63
2023/10/10 00:10:59;;;;;;;9.68;9.25;;;;;;;;;;5073722;28;20146;-63
2023/10/10 00:13:24;;;;;;;10.50;10.00;;;;;;;;;;5071402;28;20119;-64
2023/10/10 00:15:55;;;;;;;9.75;9.32;;;;;;;;;;5067088;28;20044;-64
2023/10/10 00:18:21;;;;;;;9.60;9.20;;;;;;;;;;5077301;28;20035;-64
2023/10/10 00:21:06;;;;;;;9.98;9.50;;;;;;;;;;5080578;28;20028;-64
2023/10/10 00:23:38;;;;;;;9.88;9.38;;;;;;;;;;5076600;28;20479;-63
2023/10/10 00:26:05;;;;;;;10.27;9.77;;;;;;;;;;5077731;28;20032;-64
2023/10/10 00:28:33;;;;;;;10.30;9.80;;;;;;;;;;5066242;28;20024;-63
2023/10/10 00:30:59;;;;;;;11.07;10.50;;;;;;;;;;5067704;28;20021;-64
2023/10/10 00:33:24;;;;;;;10.32;9.82;;;;;;;;;;5074689;28;20035;-64
2023/10/10 00:35:51;;;;;;;10.32;9.82;;;;;;;;;;5070793;28;20423;-64
2023/10/10 00:38:24;;;;;;;10.52;10.02;;;;;;;;;;5069532;28;20020;-64
2023/10/10 00:40:50;;;;;;;10.45;9.95;;;;;;;;;;5068851;28;20476;-64
2023/10/10 00:43:16;;;;;;;10.30;9.80;;;;;;;;;;5065594;28;20062;-64
2023/10/10 00:45:42;;;;;;;10.70;10.20;;;;;;;;;;5065797;28;20487;-65
2023/10/10 00:48:09;;;;;;;10.93;10.43;;;;;;;;;;5078910;28;20028;-64
2023/10/10 00:50:37;;;;;;;11.02;10.48;;;;;;;;;;5074222;28;20080;-64
2023/10/10 00:53:06;;;;;;;9.57;9.18;;;;;;;;;;5082478;28;20035;-64
2023/10/10 00:55:36;;;;;;;11.20;10.60;;;;;;;;;;5064398;28;20052;-63
2023/10/10 00:58:02;;;;;;;10.23;9.73;;;;;;;;;;5073719;28;20535;-63
2023/10/10 01:00:32;;;;;;;10.13;9.63;;;;;;;;;;5078538;28;20459;-64
2023/10/10 01:03:19;;;;;;;10.15;9.65;;;;;;;;;;5070570;28;20027;-64
2023/10/10 01:05:52;;;;;;;10.40;9.90;;;;;;;;;;5069898;28;20474;-65
2023/10/10 01:08:19;;;;;;;10.73;10.23;;;;;;;;;;5069095;28;20557;-64
2023/10/10 01:10:49;;;;;;;10.02;9.52;;;;;;;;;;5073322;28;20058;-64
2023/10/10 01:13:15;;;;;;;9.40;9.00;;;;;;;;;;5077688;28;20123;-65
2023/10/10 01:15:48;;;;;;;11.05;10.48;;;;;;;;;;5075769;28;20453;-64
2023/10/10 01:18:13;;;;;;;9.40;9.00;;;;;;;;;;5074804;28;20104;-64
2023/10/10 01:20:45;;;;;;;9.65;9.25;;;;;;;;;;5071959;28;20555;-64
2023/10/10 01:23:12;;;;;;;9.48;9.07;;;;;;;;;;5069871;28;20175;-62
2023/10/10 01:28:33;;;;;;;9.82;9.32;;;;;;;;;;5070906;28;20544;-64
2023/10/10 01:30:59;;;;;;;9.77;9.30;;;;;;;;;;5079994;28;20429;-64
2023/10/10 01:33:41;;;;;;;9.30;8.90;;;;;;;;;;5072979;28;20115;-64
2023/10/10 01:36:16;;;;;;;9.73;9.30;;;;;;;;;;5075790;28;20618;-65
2023/10/10 01:38:44;;;;;;;10.05;9.55;;;;;;;;;;5072219;28;20012;-63
2023/10/10 01:41:16;;;;;;;9.70;9.30;;;;;;;;;;5078431;28;20028;-64
2023/10/10 01:43:45;;;;;;;9.52;9.13;;;;;;;;;;5073668;28;20058;-64
2023/10/10 01:46:19;;;;;;;9.80;9.30;;;;;;;;;;5068684;28;20105;-64
2023/10/10 01:48:45;;;;;;;9.82;9.35;;;;;;;;;;5072820;28;20036;-64
2023/10/10 01:51:14;;;;;;;9.57;9.18;;;;;;;;;;5059735;28;20032;-64
2023/10/10 01:53:40;;;;;;;9.73;9.30;;;;;;;;;;5080415;28;20031;-63
2023/10/10 01:56:11;;;;;;;9.05;8.65;;;;;;;;;;5067827;28;20020;-63
2023/10/10 01:58:36;;;;;;;9.82;9.32;;;;;;;;;;5068645;28;20108;-64
2023/10/10 02:01:13;;;;;;;10.48;9.98;;;;;;;;;;5063238;28;20107;-63
2023/10/10 02:03:39;;;;;;;11.20;10.60;;;;;;;;;;5069501;28;20084;-65
2023/10/10 02:06:08;;;;;;;11.98;11.38;;;;;;;;;;5066570;28;20385;-64
2023/10/10 02:08:35;;;;;;;10.40;9.90;;;;;;;;;;5066244;28;20033;-64
2023/10/10 02:11:02;;;;;;;10.13;9.63;;;;;;;;;;5074834;28;20616;-64
2023/10/10 02:13:33;;;;;;;10.48;9.98;;;;;;;;;;5070098;28;20201;-65
2023/10/10 02:15:59;;;;;;;10.52;10.02;;;;;;;;;;5076069;28;20029;-64
2023/10/10 02:18:37;;;;;;;9.32;8.93;;;;;;;;;;5068128;28;20076;-64
2023/10/10 02:21:07;;;;;;;10.30;9.80;;;;;;;;;;5076799;28;20024;-64
2023/10/10 02:23:33;;;;;;;9.40;9.00;;;;;;;;;;5067158;28;20044;-65
2023/10/10 02:26:23;;;;;;;9.50;9.10;;;;;;;;;;5077531;28;20074;-64
2023/10/10 02:28:49;;;;;;;9.75;9.32;;;;;;;;;;5062556;28;20389;-65
2023/10/10 02:31:15;;;;;;;9.32;8.93;;;;;;;;;;5070721;28;20039;-64
2023/10/10 02:33:48;;;;;;;9.63;9.23;;;;;;;;;;5071090;28;20594;-64
2023/10/10 02:36:29;;;;;;;9.77;9.32;;;;;;;;;;5075287;28;20630;-64
2023/10/10 02:38:57;;;;;;;10.30;9.80;;;;;;;;;;5075808;28;20039;-64
2023/10/10 02:41:38;;;;;;;9.80;9.32;;;;;;;;;;5067165;28;20469;-64
2023/10/10 02:44:05;;;;;;;9.30;8.90;;;;;;;;;;5073665;28;20036;-64
2023/10/10 02:46:35;;;;;;;9.13;8.73;;;;;;;;;;5076927;28;20028;-64
2023/10/10 02:49:22;;;;;;;9.52;9.13;;;;;;;;;;5075914;28;20025;-65
2023/10/10 02:51:48;;;;;;;10.15;9.65;;;;;;;;;;5076233;28;20028;-63
2023/10/10 02:59:51;;;;;;;9.90;9.40;;;;;;;;;;5073937;28;20025;-63
2023/10/10 03:02:23;;;;;;;9.20;8.80;;;;;;;;;;5073450;28;20082;-63
2023/10/10 03:05:06;;;;;;;9.35;8.95;;;;;;;;;;5073937;28;20032;-64
2023/10/10 03:07:32;;;;;;;9.45;9.05;;;;;;;;;;5058765;28;20024;-64
2023/10/10 03:10:22;;;;;;;10.00;9.50;;;;;;;;;;5062230;28;20457;-63
2023/10/10 03:13:12;;;;;;;9.57;9.18;;;;;;;;;;5072330;28;20074;-64
2023/10/10 03:15:40;;;;;;;10.25;9.75;;;;;;;;;;5069161;28;20048;-65
2023/10/10 03:20:51;;;;;;;9.90;9.40;;;;;;;;;;5077301;28;20025;-64
2023/10/10 03:25:50;;;;;;;10.02;9.52;;;;;;;;;;5072583;28;20434;-63
2023/10/10 03:28:20;;;;;;;;;;;;;;;;;;5071603;28;20035;-64
2023/10/10 03:30:52;;;;;;;9.48;9.07;;;;;;;;;;5065748;28;19912;-64
2023/10/10 03:33:35;;;;;;;9.43;9.02;;;;;;;;;;5075485;28;20033;-64
2023/10/10 03:36:43;;;;;;;10.38;9.88;;;;;;;;;;5072070;28;20513;-64
2023/10/10 03:41:26;;;;;;;10.25;9.75;;;;;;;;;;5069593;28;20096;-65
2023/10/10 05:25:07;;;;;;;10.55;10.05;;;;;;;;;;5074271;28;20040;-64
2023/10/10 05:27:33;;;;;;;11.27;10.68;;;;;;;;;;5060976;28;20033;-64
2023/10/10 05:30:02;;;;;;;10.20;9.70;;;;;;;;;;5068102;28;20086;-64
2023/10/10 05:32:32;;;;;;;12.63;11.93;;;;;;;;;;5067898;28;20016;-65
2023/10/10 05:34:58;;;;;;;11.23;10.63;;;;;;;;;;5061147;28;20549;-65
2023/10/10 05:37:24;;;;;;;11.70;11.07;;;;;;;;;;5070971;28;20013;-65
2023/10/10 05:39:56;;;;;;;9.45;9.05;;;;;;;;;;5062604;28;20146;-64
2023/10/10 05:42:25;;;;;;;9.63;9.23;;;;;;;;;;5062277;28;20013;-64
2023/10/10 05:44:51;;;;;;;9.68;9.27;;;;;;;;;;5070048;28;20492;-63
2023/10/10 05:47:17;;;;;;;11.20;10.63;;;;;;;;;;5065809;28;20039;-64
2023/10/10 05:49:42;;;;;;;11.20;10.60;;;;;;;;;;5069993;28;20017;-63
2023/10/10 05:52:08;;;;;;;9.63;9.23;;;;;;;;;;5077764;28;20013;-64
2023/10/10 05:54:33;;;;;;;10.18;9.68;;;;;;;;;;5072004;28;20166;-64
2023/10/10 05:56:59;;;;;;;9.65;9.25;;;;;;;;;;5078407;28;20444;-64
2023/10/10 05:59:24;;;;;;;10.65;10.15;;;;;;;;;;5070386;28;20016;-64
2023/10/10 06:01:50;;;;;;;10.52;10.02;;;;;;;;;;5073571;28;20028;-64
2023/10/10 06:04:15;;;;;;;10.63;10.13;;;;;;;;;;5071350;28;21816;-64
2023/10/10 06:06:43;;;;;;;9.75;9.35;;;;;;;;;;5073554;28;20028;-64
2023/10/10 06:09:18;;;;;;;10.68;10.18;;;;;;;;;;5072700;28;20026;-65
2023/10/10 06:11:44;;;;;;;10.05;9.55;;;;;;;;;;5072307;28;20028;-64
2023/10/10 06:14:09;;;;;;;9.73;9.32;;;;;;;;;;5074126;28;20404;-64
2023/10/10 06:16:36;;;;;;;10.20;9.70;;;;;;;;;;5072836;28;20120;-64
2023/10/10 06:19:01;;;;;;;10.23;9.73;;;;;;;;;;5071864;28;20020;-64
2023/10/10 06:21:29;;;;;;;12.40;11.80;;;;;;;;;;5069863;28;20021;-63
2023/10/10 06:23:54;;;;;;;10.55;10.05;;;;;;;;;;5075566;28;20085;-64
2023/10/10 06:26:24;;;;;;;10.20;9.70;;;;;;;;;;5066902;28;20028;-64
2023/10/10 06:28:53;;;;;;;11.02;10.52;;;;;;;;;;5073683;28;20037;-63
2023/10/10 06:31:23;;;;;;;10.50;10.00;;;;;;;;;;5065214;28;20070;-64
2023/10/10 06:33:52;;;;;;;10.60;10.10;;;;;;;;;;5065384;28;20029;-63
2023/10/10 06:38:46;;;;;;;11.98;11.38;;;;;;;;;;5054855;28;20029;-65
2023/10/10 06:41:17;;;;;;;10.82;10.32;;;;;;;;;;5067059;28;20066;-66
2023/10/10 06:43:46;;;;;;;12.15;11.55;;;;;;;;;;5069422;28;20503;-66
2023/10/10 06:46:16;;;;;;;11.45;10.85;;;;;;;;;;5067539;28;20036;-65
2023/10/10 06:48:42;;;;;;;11.93;11.32;;;;;;;;;;5063795;28;20017;-68
2023/10/10 06:51:09;;;;;;;10.80;10.30;;;;;;;;;;5055635;28;20408;-67
2023/10/10 06:53:35;;;;;;;12.23;11.63;;;;;;;;;;5064652;28;20473;-66
2023/10/10 06:56:15;;;;;;;11.82;11.23;;;;;;;;;;5055414;28;20070;-67
2023/10/10 06:58:44;;;;;;;11.80;11.20;;;;;;;;;;5059791;28;20588;-69
2023/10/10 07:01:11;;;;;;;12.60;11.95;;;;;;;;;;5054812;28;20024;-67
2023/10/10 07:03:39;;;;;;;11.45;10.85;;;;;;;;;;5064325;28;20056;-67
2023/10/10 07:06:05;;;;;;;11.57;10.98;;;;;;;;;;5064519;28;20034;-66
2023/10/10 07:08:34;;;;;;;11.35;10.82;;;;;;;;;;5064012;28;20115;-67
2023/10/10 07:10:59;;;;;;;10.75;10.25;;;;;;;;;;5063000;28;20024;-65
2023/10/10 07:13:29;;;;;;;11.48;10.90;;;;;;;;;;5071576;28;20055;-65
2023/10/10 07:15:55;;;;;;;10.45;9.95;;;;;;;;;;5061766;28;20032;-65
2023/10/10 07:18:23;;;;;;;10.98;10.48;;;;;;;;;;5064725;28;20236;-66
2023/10/10 07:24:04;;;;;;;11.57;10.98;;;;;;;;;;5035476;28;20044;-66
2023/10/10 07:26:31;;;;;;;11.20;10.70;;;;;;;;;;5066854;28;20064;-64
2023/10/10 07:28:56;;;;;;;10.80;10.30;;;;;;;;;;5064960;28;20033;-64
2023/10/10 07:31:22;;;;;;;12.10;11.50;;;;;;;;;;5057827;28;20034;-64
2023/10/10 07:33:55;;;;;;;11.85;11.25;;;;;;;;;;5056133;28;20037;-67
2023/10/10 07:36:24;;;;;;;11.73;11.13;;;;;;;;;;5061102;28;20090;-66
2023/10/10 07:38:54;;;;;;;11.70;11.10;;;;;;;;;;5069171;28;20086;-68
2023/10/10 07:41:20;;;;;;;11.13;10.63;;;;;;;;;;5069858;28;20028;-65
2023/10/10 07:43:49;;;;;;;10.88;10.38;;;;;;;;;;5063827;28;20024;-66
2023/10/10 07:46:21;;;;;;;11.18;10.68;;;;;;;;;;5055069;28;20570;-65
2023/10/10 07:48:53;;;;;;;12.10;11.50;;;;;;;;;;5065002;28;20555;-66
2023/10/10 07:51:27;;;;;;;12.35;11.75;;;;;;;;;;5060005;28;20104;-66
2023/10/10 07:54:00;;;;;;;11.75;11.23;;;;;;;;;;5068783;28;20048;-65
2023/10/10 07:56:26;;;;;;;11.20;10.70;;;;;;;;;;5061876;28;20064;-64
2023/10/10 07:58:56;;;;;;;11.63;11.13;;;;;;;;;;5052421;28;20098;-64
2023/10/10 08:01:23;;;;;;;11.98;11.45;;;;;;;;;;5062337;28;20028;-64
2023/10/10 08:03:48;;;;;;;11.38;10.88;;;;;;;;;;5063094;28;20024;-66
2023/10/10 08:06:18;;;;;;;11.52;11.02;;;;;;;;;;5061293;28;20020;-67
2023/10/10 08:11:37;;;;;;;12.18;11.57;;;;;;;;;;5064861;28;20044;-66
2023/10/10 08:14:07;;;;;;;12.18;11.57;;;;;;;;;;5058439;28;20043;-67
2023/10/10 08:16:33;;;;;;;12.75;12.15;;;;;;;;;;5060913;28;20036;-65
2023/10/10 08:19:04;;;;;;;12.18;11.57;;;;;;;;;;5058279;28;20039;-66
2023/10/10 08:21:36;;;;;;;12.18;11.57;;;;;;;;;;5062633;28;20024;-65
2023/10/10 08:24:01;;;;;;;12.63;12.02;;;;;;;;;;5064599;28;20024;-65
2023/10/10 08:26:29;;;;;;;11.75;11.25;;;;;;;;;;5058507;28;20168;-66
2023/10/10 08:28:55;;;;;;;12.40;11.80;;;;;;;;;;5058566;28;20489;-66
2023/10/10 08:31:22;;;;;;;11.80;11.30;;;;;;;;;;5053522;28;20237;-66
2023/10/10 08:33:48;;;;;;;12.93;12.32;;;;;;;;;;5054653;28;20067;-64
2023/10/10 08:36:25;;;;;;;12.38;11.77;;;;;;;;;;5059337;28;20020;-65
2023/10/10 08:38:52;;;;;;;12.15;11.55;;;;;;;;;;5057545;28;20480;-67
2023/10/10 08:41:20;;;;;;;11.85;11.35;;;;;;;;;;5058283;28;20051;-66
2023/10/10 08:43:53;;;;;;;12.38;11.77;;;;;;;;;;5053608;28;20673;-66
2023/10/10 08:46:21;;;;;;;11.80;11.30;;;;;;;;;;5057844;28;20089;-64
2023/10/10 08:48:47;;;;;;;10.95;10.45;;;;;;;;;;5065502;28;20033;-64
2023/10/10 08:51:12;;;;;;;11.10;10.60;;;;;;;;;;5064138;28;20032;-64
2023/10/10 08:53:40;;;;;;;13.05;12.45;;;;;;;;;;5054274;28;20020;-65
2023/10/10 08:56:08;;;;;;;11.32;10.82;;;;;;;;;;5046509;28;20039;-69
2023/10/10 08:58:35;;;;;;;11.73;11.23;;;;;;;;;;5049607;28;20044;-64
2023/10/10 09:01:02;;;;;;;11.35;10.85;;;;;;;;;;5056435;28;20107;-63
2023/10/10 09:03:28;;;;;;;12.02;11.52;;;;;;;;;;5056912;28;20454;-66
2023/10/10 09:05:55;;;;;;;11.65;11.15;;;;;;;;;;5053845;28;20107;-66
2023/10/10 09:08:26;;;;;;;12.02;11.52;;;;;;;;;;5060698;28;20037;-66
2023/10/10 09:10:55;;;;;;;12.27;11.70;;;;;;;;;;5056013;28;20479;-64
2023/10/10 09:13:20;;;;;;;11.75;11.25;;;;;;;;;;5067277;28;20043;-65
2023/10/10 09:15:55;;;;;;;11.50;11.00;;;;;;;;;;5052670;28;20010;-65
2023/10/10 09:18:25;;;;;;;12.07;11.57;;;;;;;;;;5059249;28;20024;-64
2023/10/10 09:20:51;;;;;;;12.95;12.35;;;;;;;;;;5067994;28;20096;-61
2023/10/10 09:23:21;;;;;;;12.00;11.50;;;;;;;;;;5060039;28;20476;-63
2023/10/10 09:25:57;;;;;;;11.40;10.90;;;;;;;;;;5059536;28;20213;-63
2023/10/10 09:28:30;;;;;;;12.27;11.73;;;;;;;;;;5056294;28;20029;-62
2023/10/10 09:31:00;;;;;;;12.70;12.10;;;;;;;;;;5070678;28;20374;-66
2023/10/10 09:33:30;;;;;;;12.38;11.77;;;;;;;;;;5057874;28;20040;-63
2023/10/10 09:36:08;;;;;;;12.55;11.95;;;;;;;;;;5069450;28;20047;-63
2023/10/10 09:38:55;;;;;;;11.82;11.32;;;;;;;;;;5063985;28;20142;-63
2023/10/10 09:55:02;;;;;;;12.60;12.00;;;;;;;;;;5061622;28;20051;-64
2023/10/10 09:57:29;;;;;;;12.60;12.00;;;;;;;;;;5068901;28;20493;-64
2023/10/10 09:59:56;;;;;;;11.90;11.40;;;;;;;;;;5060806;28;20032;-68
2023/10/10 10:02:40;;;;;;;12.20;11.60;;;;;;;;;;5062034;28;20174;-68
2023/10/10 10:05:13;;;;;;;12.02;11.45;;;;;;;;;;5054420;28;20698;-66
2023/10/10 10:07:57;;;;;;;12.57;11.97;;;;;;;;;;5058296;28;20032;-67
2023/10/10 10:10:48;;;;;;;12.23;11.63;;;;;;;;;;5055291;28;20270;-67
2023/10/10 10:13:13;;;;;;;12.20;11.60;;;;;;;;;;5058349;28;20069;-65
2023/10/10 10:15:53;;;;;;;12.18;11.57;;;;;;;;;;5058135;28;20063;-65
2023/10/10 10:18:26;;;;;;;11.30;10.80;;;;;;;;;;5052719;28;20131;-67
2023/10/10 10:23:33;;;;;;;12.25;11.65;;;;;;;;;;5064729;28;20150;-66
2023/10/10 10:26:10;;;;;;;12.55;11.95;;;;;;;;;;5058643;28;20489;-66
2023/10/10 10:28:36;;;;;;;12.02;11.43;;;;;;;;;;5064023;28;20379;-69
2023/10/10 10:31:29;;;;;;;12.10;11.50;;;;;;;;;;5041464;28;20072;-64
2023/10/10 10:34:05;;;;;;;12.63;12.02;;;;;;;;;;5062031;28;20050;-66
2023/10/10 10:36:45;;;;;;;12.15;11.55;;;;;;;;;;5060518;28;20024;-67
2023/10/10 10:39:23;;;;;;;11.57;11.07;;;;;;;;;;5054905;28;20016;-66
2023/10/10 10:41:53;;;;;;;12.68;12.07;;;;;;;;;;5067254;28;20029;-67
2023/10/10 10:44:58;;;;;;;12.85;12.25;;;;;;;;;;5061575;28;20036;-66
2023/10/10 10:47:34;;;;;;;12.18;11.57;;;;;;;;;;5061299;28;20043;-64
2023/10/10 10:50:04;;;;;;;12.43;11.82;;;;;;;;;;5058122;28;20033;-63
2023/10/10 10:52:45;;;;;;;12.30;11.70;;;;;;;;;;5059343;28;20489;-66
2023/10/10 10:55:19;;;;;;;12.05;11.45;;;;;;;;;;5059543;28;20040;-62
2023/10/10 10:57:44;;;;;;;12.45;11.85;;;;;;;;;;5061020;28;20382;-65
2023/10/10 11:00:20;;;;;;;12.40;11.80;;;;;;;;;;5060215;28;20040;-64
2023/10/10 11:02:50;;;;;;;11.50;11.00;;;;;;;;;;5059113;28;20097;-64
2023/10/10 11:05:24;;;;;;;12.32;11.73;;;;;;;;;;5060173;28;20035;-63
2023/10/10 11:07:49;;;;;;;12.20;11.60;;;;;;;;;;5061757;28;20025;-61
2023/10/10 11:10:35;;;;;;;12.65;12.05;;;;;;;;;;5061183;28;20054;-62
2023/10/10 11:13:07;;;;;;;12.15;11.55;;;;;;;;;;5064519;28;20052;-65
2023/10/10 11:15:37;;;;;;;12.02;11.43;;;;;;;;;;5056843;28;20442;-62
2023/10/10 11:18:07;;;;;;;11.63;11.13;;;;;;;;;;5057737;28;20029;-64
2023/10/10 11:20:57;;;;;;;13.48;12.77;;;;;;;;;;5054201;28;20082;-64
2023/10/10 11:23:21;;;;;;;14.70;13.98;;;;;;;;;;5053410;28;20033;-62
2023/10/10 11:25:58;;;;;;;12.32;11.73;;;;;;;;;;5070971;28;20158;-63
2023/10/10 11:28:36;;;;;;;12.27;11.68;;;;;;;;;;5056500;28;20054;-62
2023/10/10 11:31:06;;;;;;;12.30;11.70;;;;;;;;;;5054987;28;20021;-64
2023/10/10 11:36:37;;;;;;;11.63;11.13;;;;;;;;;;5052138;28;20027;-59
2023/10/10 11:39:16;;;;;;;11.95;11.35;;;;;;;;;;5054258;28;20563;-65
2023/10/10 11:41:45;;;;;;;11.13;10.63;;;;;;;;;;5055664;28;20132;-64
2023/10/10 11:44:16;;;;;;;12.35;11.75;;;;;;;;;;5060685;28;20033;-62
2023/10/10 11:46:42;;;;;;;11.45;10.95;;;;;;;;;;5063201;28;20412;-62
2023/10/10 11:49:15;;;;;;;12.80;12.20;;;;;;;;;;5057954;28;20029;-64
2023/10/10 11:51:41;;;;;;;12.30;11.70;;;;;;;;;;5063986;28;20028;-63
2023/10/10 11:54:07;;;;;;;12.30;11.70;;;;;;;;;;5068822;28;20079;-63
2023/10/10 11:56:34;;;;;;;12.55;11.95;;;;;;;;;;5057788;28;20638;-63
2023/10/10 11:59:09;;;;;;;11.82;11.27;;;;;;;;;;5051145;28;20025;-62
2023/10/10 12:02:29;;;;;;;11.82;11.27;;;;;;;;;;5066050;28;20108;-62
2023/10/10 12:04:30;;;;;;;11.93;11.32;;;;;;;;;;5053113;28;20071;-61
2023/10/10 12:06:58;;;;;;;11.98;11.38;;;;;;;;;;5062867;28;20028;-63
2023/10/10 12:09:25;;;;;;;12.50;11.90;;;;;;;;;;5061174;28;20519;-63
2023/10/10 12:11:58;;;;;;;11.68;11.13;;;;;;;;;;5064753;28;20035;-62
2023/10/10 12:14:24;;;;;;;12.70;12.10;;;;;;;;;;5058089;28;20029;-62
2023/10/10 12:16:52;;;;;;;11.98;11.38;;;;;;;;;;5057076;28;20027;-63
2023/10/10 12:19:18;;;;;;;11.43;10.93;;;;;;;;;;5058486;28;20394;-62
2023/10/10 12:21:44;;;;;;;12.05;11.45;;;;;;;;;;5051653;28;20032;-62
2023/10/10 12:24:09;;;;;;;11.93;11.32;;;;;;;;;;5059219;28;20166;-63
2023/10/10 12:26:41;;;;;;;11.43;10.93;;;;;;;;;;5061033;28;20517;-63
2023/10/10 12:29:10;;;;;;;11.80;11.23;;;;;;;;;;5062769;28;20035;-61
2023/10/10 12:31:36;;;;;;;11.77;11.27;;;;;;;;;;5062566;28;20174;-62
2023/10/10 12:34:02;;;;;;;12.30;11.70;;;;;;;;;;5051043;28;20728;-62
2023/10/10 12:36:32;;;;;;;11.38;10.88;;;;;;;;;;5063285;28;20028;-62
2023/10/10 12:38:59;;;;;;;11.82;11.23;;;;;;;;;;5061936;28;20067;-64
2023/10/10 12:41:25;;;;;;;12.45;11.85;;;;;;;;;;5059453;28;20032;-61
2023/10/10 12:43:50;;;;;;;11.50;11.00;;;;;;;;;;5061688;28;20028;-61
2023/10/10 12:46:17;;;;;;;11.50;11.00;;;;;;;;;;5060084;28;20024;-63
2023/10/10 12:48:46;;;;;;;11.85;11.27;;;;;;;;;;5055444;28;20054;-62
2023/10/10 12:51:12;;;;;;;12.25;11.65;;;;;;;;;;5047363;28;20031;-60
2023/10/10 12:53:42;;;;;;;12.55;11.95;;;;;;;;;;5059447;28;20031;-61
2023/10/10 12:56:16;;;;;;;11.73;11.20;;;;;;;;;;5061524;28;20106;-60
2023/10/10 12:58:51;;;;;;;11.90;11.30;;;;;;;;;;5062607;28;20541;-60
2023/10/10 13:01:22;;;;;;;12.05;11.45;;;;;;;;;;5061866;28;20037;-64
2023/10/10 13:03:48;;;;;;;11.07;10.57;;;;;;;;;;5061039;28;20032;-63
2023/10/10 13:06:14;;;;;;;11.93;11.32;;;;;;;;;;5063247;28;20071;-63
2023/10/10 13:08:48;;;;;;;12.55;11.95;;;;;;;;;;5055359;28;20387;-62
2023/10/10 13:11:20;;;;;;;11.63;11.13;;;;;;;;;;5064886;28;20480;-62
2023/10/10 13:13:51;;;;;;;14.23;13.52;;;;;;;;;;5054847;28;20041;-62
2023/10/10 13:16:27;;;;;;;11.60;11.10;;;;;;;;;;5059903;28;20044;-64
2023/10/10 13:18:56;;;;;;;12.18;11.57;;;;;;;;;;5059155;28;20517;-66
2023/10/10 13:21:22;;;;;;;11.95;11.35;;;;;;;;;;5057707;28;20043;-65
2023/10/10 13:23:50;;;;;;;12.60;12.00;;;;;;;;;;5056229;28;20032;-64
2023/10/10 13:26:16;;;;;;;11.90;11.30;;;;;;;;;;5061224;28;20032;-63
2023/10/10 13:28:44;;;;;;;11.95;11.35;;;;;;;;;;5059995;28;20035;-64
2023/10/10 13:31:13;;;;;;;12.80;12.20;;;;;;;;;;5061726;28;20037;-63
2023/10/10 13:33:39;;;;;;;11.48;10.98;;;;;;;;;;5069213;28;20551;-63
2023/10/10 13:36:05;;;;;;;12.13;11.52;;;;;;;;;;5063236;28;20024;-62
2023/10/10 13:38:30;;;;;;;12.07;11.48;;;;;;;;;;5063519;28;20029;-65
2023/10/10 13:40:55;;;;;;;11.93;11.32;;;;;;;;;;5069085;28;20021;-64
2023/10/10 13:43:21;;;;;;;12.15;11.55;;;;;;;;;;5063395;28;20123;-63
2023/10/10 13:45:51;;;;;;;10.90;10.40;;;;;;;;;;5063455;28;20071;-65
2023/10/10 13:48:18;;;;;;;12.27;11.68;;;;;;;;;;5064177;28;20057;-64
2023/10/10 13:50:45;;;;;;;12.02;11.43;;;;;;;;;;5060617;28;20567;-64
2023/10/10 13:53:14;;;;;;;11.82;11.23;;;;;;;;;;5060955;28;20129;-64
2023/10/10 13:55:43;;;;;;;12.05;11.45;;;;;;;;;;5065418;28;20047;-63
2023/10/10 13:58:11;;;;;;;11.55;11.05;;;;;;;;;;5054750;28;20070;-63
2023/10/10 14:00:37;;;;;;;11.68;11.15;;;;;;;;;;5055667;28;20028;-63
2023/10/10 14:03:03;;;;;;;12.05;11.48;;;;;;;;;;5063872;28;20017;-62
2023/10/10 14:05:30;;;;;;;11.98;11.38;;;;;;;;;;5057996;28;20024;-63
2023/10/10 14:07:57;;;;;;;12.18;11.57;;;;;;;;;;5066086;28;20127;-64
2023/10/10 14:10:22;;;;;;;12.63;12.02;;;;;;;;;;5056928;28;20028;-64
2023/10/10 14:12:50;;;;;;;11.77;11.18;;;;;;;;;;5058858;28;20468;-63
2023/10/10 14:15:18;;;;;;;13.25;12.55;;;;;;;;;;5052301;28;20028;-63
2023/10/10 14:17:46;;;;;;;11.80;11.20;;;;;;;;;;5053563;28;20021;-68
2023/10/10 14:20:20;;;;;;;11.43;10.93;;;;;;;;;;5069918;28;20442;-61
2023/10/10 14:22:46;;;;;;;11.35;10.85;;;;;;;;;;5061281;28;20031;-62
2023/10/10 14:25:12;;;;;;;10.88;10.38;;;;;;;;;;5059047;28;20020;-61
2023/10/10 14:27:38;;;;;;;10.50;10.00;;;;;;;;;;5068650;28;20017;-63
2023/10/10 14:30:04;;;;;;;11.15;10.65;;;;;;;;;;5059492;28;20099;-63
2023/10/10 14:32:29;;;;;;;11.23;10.73;;;;;;;;;;5067413;28;20031;-61
2023/10/10 14:34:55;;;;;;;11.10;10.60;;;;;;;;;;5060794;28;20112;-62
2023/10/10 14:37:20;;;;;;;11.15;10.65;;;;;;;;;;5077740;28;20511;-62
2023/10/10 14:39:45;;;;;;;11.27;10.77;;;;;;;;;;5069931;28;20034;-62
2023/10/10 14:42:13;;;;;;;11.35;10.85;;;;;;;;;;5069939;28;20012;-62
2023/10/10 14:44:40;;;;;;;11.13;10.63;;;;;;;;;;5069863;28;20035;-58
2023/10/10 14:47:07;;;;;;;11.18;10.68;;;;;;;;;;5071889;28;20047;-61
2023/10/10 14:49:34;;;;;;;11.32;10.82;;;;;;;;;;5075722;28;20021;-62
2023/10/10 14:52:03;;;;;;;11.10;10.60;;;;;;;;;;5076640;28;20024;-61
2023/10/10 14:54:30;;;;;;;12.05;11.45;;;;;;;;;;5061297;28;20112;-62
2023/10/10 14:56:55;;;;;;;11.35;10.85;;;;;;;;;;5071242;28;20020;-63
2023/10/10 14:59:25;;;;;;;10.75;10.25;;;;;;;;;;5071740;28;20093;-62
2023/10/10 15:01:51;;;;;;;10.77;10.27;;;;;;;;;;5079212;28;20616;-63
2023/10/10 15:04:18;;;;;;;11.68;11.10;;;;;;;;;;5071688;28;20012;-62
2023/10/10 15:06:44;;;;;;;10.57;10.07;;;;;;;;;;5070748;28;20032;-62
2023/10/10 15:09:13;;;;;;;11.15;10.65;;;;;;;;;;5064313;28;20107;-62
2023/10/10 15:11:41;;;;;;;10.68;10.18;;;;;;;;;;5066969;28;20024;-61
2023/10/10 15:14:07;;;;;;;11.30;10.80;;;;;;;;;;5071782;28;20032;-62
2023/10/10 15:16:35;;;;;;;11.70;11.10;;;;;;;;;;5071367;28;20431;-62
2023/10/10 15:19:02;;;;;;;11.70;11.10;;;;;;;;;;5057662;28;20021;-62
2023/10/10 15:21:32;;;;;;;10.88;10.38;;;;;;;;;;5062625;28;20040;-62
2023/10/10 15:24:01;;;;;;;11.23;10.73;;;;;;;;;;5063766;28;20024;-62
2023/10/10 15:26:27;;;;;;;10.70;10.20;;;;;;;;;;5068311;28;20025;-62
2023/10/10 15:28:53;;;;;;;11.10;10.60;;;;;;;;;;5071557;28;20025;-61
2023/10/10 15:31:24;;;;;;;11.00;10.50;;;;;;;;;;5069313;28;20024;-62
2023/10/10 15:33:50;;;;;;;10.50;10.00;;;;;;;;;;5071228;28;20033;-62
2023/10/10 15:36:18;;;;;;;10.93;10.43;;;;;;;;;;5073987;28;20126;-62
2023/10/10 15:38:43;;;;;;;10.73;10.23;;;;;;;;;;5070870;28;20020;-62
2023/10/10 15:41:15;;;;;;;11.20;10.70;;;;;;;;;;5069837;28;20027;-62
2023/10/10 15:43:46;;;;;;;11.13;10.63;;;;;;;;;;5064782;28;20107;-63
2023/10/10 15:46:12;;;;;;;10.63;10.13;;;;;;;;;;5069552;28;20108;-62
2023/10/10 15:48:42;;;;;;;10.88;10.38;;;;;;;;;;5070655;28;20099;-62
2023/10/10 15:51:08;;;;;;;10.65;10.15;;;;;;;;;;5059024;28;20028;-63
2023/10/10 15:53:38;;;;;;;11.70;11.10;;;;;;;;;;5068868;28;20021;-62
2023/10/10 15:56:07;;;;;;;11.35;10.77;;;;;;;;;;5070641;28;20541;-61
2023/10/10 15:58:36;;;;;;;11.05;10.55;;;;;;;;;;5068793;28;20028;-62
2023/10/10 16:01:04;;;;;;;10.60;10.10;;;;;;;;;;5062824;28;21021;-62
2023/10/10 16:03:31;;;;;;;12.18;11.57;;;;;;;;;;5068629;28;20029;-62
2023/10/10 16:05:58;;;;;;;10.98;10.48;;;;;;;;;;5078383;28;20013;-62
2023/10/10 16:08:24;;;;;;;10.93;10.43;;;;;;;;;;5070270;28;20025;-61
2023/10/10 16:10:49;;;;;;;10.85;10.35;;;;;;;;;;5065281;28;20050;-62
2023/10/10 16:13:14;;;;;;;10.75;10.25;;;;;;;;;;5065728;28;20086;-63
2023/10/10 16:15:40;;;;;;;10.35;9.85;;;;;;;;;;5071763;28;20092;-62
2023/10/10 16:18:05;;;;;;;11.02;10.52;;;;;;;;;;5056061;28;20079;-61
2023/10/10 16:20:35;;;;;;;10.82;10.32;;;;;;;;;;5067289;28;20028;-62
2023/10/10 16:23:00;;;;;;;10.10;9.60;;;;;;;;;;5068511;28;20055;-65
2023/10/10 16:25:26;;;;;;;10.73;10.23;;;;;;;;;;5071626;28;20122;-61
2023/10/10 16:27:51;;;;;;;9.95;9.52;;;;;;;;;;5070361;28;20462;-63
2023/10/10 16:30:16;;;;;;;11.43;10.82;;;;;;;;;;5070493;28;20283;-61
2023/10/10 16:32:45;;;;;;;9.93;9.52;;;;;;;;;;5067775;28;20327;-62
2023/10/10 16:35:11;;;;;;;9.93;9.50;;;;;;;;;;5067851;28;20043;-61
2023/10/10 16:37:40;;;;;;;10.98;10.48;;;;;;;;;;5076772;28;20023;-61
2023/10/10 16:40:08;;;;;;;10.40;9.90;;;;;;;;;;5075214;28;20021;-61
2023/10/10 16:42:33;;;;;;;10.10;9.60;;;;;;;;;;5069661;28;20021;-62
2023/10/10 16:44:59;;;;;;;10.18;9.68;;;;;;;;;;5074426;28;20027;-62
2023/10/10 16:47:25;;;;;;;10.52;10.02;;;;;;;;;;5072405;28;20055;-62
2023/10/10 16:49:50;;;;;;;10.05;9.55;;;;;;;;;;5074838;28;20024;-62
2023/10/10 16:52:16;;;;;;;10.30;9.80;;;;;;;;;;5066838;28;20017;-62
2023/10/10 16:54:46;;;;;;;10.25;9.75;;;;;;;;;;5070788;28;20037;-62
2023/10/10 16:57:12;;;;;;;9.85;9.45;;;;;;;;;;5073975;28;20100;-63
2023/10/10 16:59:37;;;;;;;10.23;9.73;;;;;;;;;;5073916;28;20097;-61
2023/10/10 17:02:02;;;;;;;10.65;10.15;;;;;;;;;;5071293;28;20023;-61